메인 페이지
METAR-TAF:

METAR-TAF

공항 :

시러큐스, 뉴욕, 미국

위도: 43-06-33N, 경도: 076-06-12W, 고도: 128m

현재 날씨관측

예보는 45분 전, 18:54시(UTC)에 발표되었습니다.
서북서14kt, 순간 최대 풍속 23kt
온도 5°C
습도 65%
기압 1018 hPa
시정: 16.1km
고도 3200ft 상공 구름 조금
고도 4400ft 상공 구름 많음
고도 8000ft 상공 구름 많음

METAR: KSYR 231854Z 29014G23KT 10SM FEW032 BKN044 BKN080 05/M01 A3006 RMK AO2 PK WND 28026/1832 RAE00 SLP179 P0000 T00501006

시각: 14:39 (19:39 UTC)

예보

예보는 1 시간 58분 전, 17:41시(UTC)에 발표되었습니다.
예보 대상 시간: 23일 18시부터 24일 18시까지 (UTC)
14kt, 순간 최대 풍속 22kt
시정: 10km
고도 1800ft 상공 구름 보통
고도 2500ft 상공 구름 많음
약한소나기
23일 2300시부터 (UTC)
9kt
시정: 10km
고도 2800ft 상공 구름 보통
고도 3500ft 상공 흐림
24일 0300시부터 (UTC)
서북서8kt
시정: 9.7km
고도 2200ft 상공 흐림
약한소나기, 눈, 박무
일시적
24일 03시부터 24일 07시까지 (UTC)
시정: 4.8km
고도 1500ft 상공 구름 많음
약한소낙눈, 박무
24일 0700시부터 (UTC)
북서8kt
시정: 9.7km
고도 1800ft 상공 흐림
약한소낙눈
24일 1400시부터 (UTC)
북서8kt
시정: 10km
고도 2600ft 상공 구름 많음
24일 1600시부터 (UTC)
북서6kt
시정: 10km
고도 4500ft 상공 구름 조금
고도 7000ft 상공 구름 보통

TAF: KSYR 231741Z 2318/2418 27014G22KT P6SM -SHRA SCT018 BKN025 FM232300 28009KT P6SM SCT028 OVC035 FM240300 30008KT 6SM -SHRASN BR OVC022 TEMPO 2403/2407 3SM -SHSN BR BKN015 FM240700 31008KT 6SM -SHSN OVC018 FM241400 32008KT P6SM BKN026 FM241600 32006KT P6SM FEW045 SCT070

4,000개 이상의 공항 관측 자료 및 예보 (METAR 및 TAF 보고).

지도상에서 검색 가능한 기상관측소가 노란 점과 빨간 점으로 표시되어 있습니다.

기상관측소 명을 보려면 표시 위로 마우스를 이동하세요.

날씨 관측과 예보를 보려면 클릭하세요.

지도 변경 : 확대하려면 엑스 표시가 있는 녹색 버튼, 축소하려면 빼기 표시가 있는 녹색 버튼, 다음 페이지의 지도를 보려면 녹색 화살표를 클릭하세요.


METAR-TAF: